sensor_id;sensor_type;location;lat;lon;timestamp;pressure;altitude;pressure_sealevel;temperature;humidity
46782;BME280;32541;46.298;11.506;2024-01-30T00:01:48;91044.81;;;-0.18;60.73
46782;BME280;32541;46.298;11.506;2024-01-30T00:04:13;91044.81;;;-0.18;61.33
46782;BME280;32541;46.298;11.506;2024-01-30T00:06:39;91045.97;;;-0.25;61.96
46782;BME280;32541;46.298;11.506;2024-01-30T00:09:04;91037.94;;;-0.19;61.96
46782;BME280;32541;46.298;11.506;2024-01-30T00:11:30;91035.28;;;-0.14;61.60
46782;BME280;32541;46.298;11.506;2024-01-30T00:13:56;91030.28;;;-0.21;61.59
46782;BME280;32541;46.298;11.506;2024-01-30T00:16:25;91032.47;;;-0.25;61.65
46782;BME280;32541;46.298;11.506;2024-01-30T00:18:53;91029.22;;;-0.29;61.70
46782;BME280;32541;46.298;11.506;2024-01-30T00:21:19;91032.63;;;-0.34;62.00
46782;BME280;32541;46.298;11.506;2024-01-30T00:23:45;91034.78;;;-0.38;61.45
46782;BME280;32541;46.298;11.506;2024-01-30T00:26:11;91033.97;;;-0.44;61.65
46782;BME280;32541;46.298;11.506;2024-01-30T00:28:37;91035.06;;;-0.36;61.79
46782;BME280;32541;46.298;11.506;2024-01-30T00:31:03;91026.47;;;-0.34;61.47
46782;BME280;32541;46.298;11.506;2024-01-30T00:33:28;91035.78;;;-0.35;62.01
46782;BME280;32541;46.298;11.506;2024-01-30T00:35:54;91025.81;;;-0.24;60.97
46782;BME280;32541;46.298;11.506;2024-01-30T00:38:19;91034.41;;;-0.25;61.71
46782;BME280;32541;46.298;11.506;2024-01-30T00:40:44;91036.31;;;-0.31;61.84
46782;BME280;32541;46.298;11.506;2024-01-30T00:43:09;91036.28;;;-0.37;61.71
46782;BME280;32541;46.298;11.506;2024-01-30T00:45:35;91037.31;;;-0.29;60.93
46782;BME280;32541;46.298;11.506;2024-01-30T00:48:01;91036.72;;;-0.18;60.20
46782;BME280;32541;46.298;11.506;2024-01-30T00:50:26;91032.88;;;-0.32;60.75
46782;BME280;32541;46.298;11.506;2024-01-30T00:52:51;91029.13;;;-0.40;61.74
46782;BME280;32541;46.298;11.506;2024-01-30T00:55:17;91033.22;;;-0.44;61.30
46782;BME280;32541;46.298;11.506;2024-01-30T00:57:42;91034.16;;;-0.47;62.47
46782;BME280;32541;46.298;11.506;2024-01-30T01:00:08;91039.38;;;-0.44;63.81
46782;BME280;32541;46.298;11.506;2024-01-30T01:02:35;91031.47;;;-0.47;63.03
46782;BME280;32541;46.298;11.506;2024-01-30T01:05:01;91027.91;;;-0.39;64.16
46782;BME280;32541;46.298;11.506;2024-01-30T01:07:26;91033.78;;;-0.40;62.16
46782;BME280;32541;46.298;11.506;2024-01-30T01:09:52;91029.84;;;-0.39;61.87
46782;BME280;32541;46.298;11.506;2024-01-30T01:12:17;91030.38;;;-0.35;61.70
46782;BME280;32541;46.298;11.506;2024-01-30T01:14:43;91026.56;;;-0.49;62.44
46782;BME280;32541;46.298;11.506;2024-01-30T01:17:08;91026.00;;;-0.53;62.66
46782;BME280;32541;46.298;11.506;2024-01-30T01:19:33;91025.50;;;-0.57;62.96
46782;BME280;32541;46.298;11.506;2024-01-30T01:21:59;91029.88;;;-0.60;62.15
46782;BME280;32541;46.298;11.506;2024-01-30T01:24:24;91020.59;;;-0.53;61.85
46782;BME280;32541;46.298;11.506;2024-01-30T01:26:49;91024.53;;;-0.54;62.55
46782;BME280;32541;46.298;11.506;2024-01-30T01:29:15;91014.69;;;-0.57;62.38
46782;BME280;32541;46.298;11.506;2024-01-30T01:31:41;91016.50;;;-0.48;61.93
46782;BME280;32541;46.298;11.506;2024-01-30T01:34:10;91014.00;;;-0.52;61.21
46782;BME280;32541;46.298;11.506;2024-01-30T01:36:35;91015.53;;;-0.45;61.68
46782;BME280;32541;46.298;11.506;2024-01-30T01:39:01;91019.66;;;-0.50;61.89
46782;BME280;32541;46.298;11.506;2024-01-30T01:41:30;91021.41;;;-0.47;61.88
46782;BME280;32541;46.298;11.506;2024-01-30T01:43:56;91016.44;;;-0.54;61.39
46782;BME280;32541;46.298;11.506;2024-01-30T01:46:22;91006.63;;;-0.51;61.56
46782;BME280;32541;46.298;11.506;2024-01-30T01:48:47;91013.69;;;-0.60;61.62
46782;BME280;32541;46.298;11.506;2024-01-30T01:51:14;91013.88;;;-0.63;62.30
46782;BME280;32541;46.298;11.506;2024-01-30T01:53:40;91015.19;;;-0.53;61.78
46782;BME280;32541;46.298;11.506;2024-01-30T01:56:05;91011.56;;;-0.50;62.12
46782;BME280;32541;46.298;11.506;2024-01-30T01:58:31;91007.03;;;-0.59;62.27
46782;BME280;32541;46.298;11.506;2024-01-30T02:00:58;91012.13;;;-0.66;62.11
46782;BME280;32541;46.298;11.506;2024-01-30T02:03:24;91008.19;;;-0.65;62.13
46782;BME280;32541;46.298;11.506;2024-01-30T02:05:50;91011.22;;;-0.58;62.38
46782;BME280;32541;46.298;11.506;2024-01-30T02:08:16;91012.44;;;-0.59;62.73
46782;BME280;32541;46.298;11.506;2024-01-30T02:10:41;91014.81;;;-0.66;63.30
46782;BME280;32541;46.298;11.506;2024-01-30T02:13:07;91013.50;;;-0.50;62.28
46782;BME280;32541;46.298;11.506;2024-01-30T02:15:32;91012.38;;;-0.64;61.86
46782;BME280;32541;46.298;11.506;2024-01-30T02:17:57;91015.47;;;-0.71;63.17
46782;BME280;32541;46.298;11.506;2024-01-30T02:20:28;91006.38;;;-0.74;62.72
46782;BME280;32541;46.298;11.506;2024-01-30T02:22:55;91008.00;;;-0.62;61.98
46782;BME280;32541;46.298;11.506;2024-01-30T02:25:41;91004.13;;;-0.55;61.76
46782;BME280;32541;46.298;11.506;2024-01-30T02:28:13;91011.19;;;-0.63;62.63
46782;BME280;32541;46.298;11.506;2024-01-30T02:30:39;91010.38;;;-0.69;63.49
46782;BME280;32541;46.298;11.506;2024-01-30T02:33:05;91008.63;;;-0.72;63.28
46782;BME280;32541;46.298;11.506;2024-01-30T02:35:30;91010.50;;;-0.78;63.16
46782;BME280;32541;46.298;11.506;2024-01-30T02:37:56;91016.84;;;-0.81;63.49
46782;BME280;32541;46.298;11.506;2024-01-30T02:40:22;91004.56;;;-0.82;63.20
46782;BME280;32541;46.298;11.506;2024-01-30T02:42:48;91005.25;;;-0.87;63.51
46782;BME280;32541;46.298;11.506;2024-01-30T02:45:13;91008.19;;;-0.85;63.34
46782;BME280;32541;46.298;11.506;2024-01-30T02:47:39;91003.66;;;-0.74;62.97
46782;BME280;32541;46.298;11.506;2024-01-30T02:50:05;91004.09;;;-0.81;63.96
46782;BME280;32541;46.298;11.506;2024-01-30T02:52:30;91002.34;;;-0.84;63.78
46782;BME280;32541;46.298;11.506;2024-01-30T02:54:55;91005.50;;;-0.85;64.42
46782;BME280;32541;46.298;11.506;2024-01-30T02:57:21;91003.56;;;-0.85;63.41
46782;BME280;32541;46.298;11.506;2024-01-30T02:59:46;90998.91;;;-0.84;63.16
46782;BME280;32541;46.298;11.506;2024-01-30T03:02:11;91005.78;;;-0.83;63.06
46782;BME280;32541;46.298;11.506;2024-01-30T03:04:37;91000.16;;;-0.80;63.17
46782;BME280;32541;46.298;11.506;2024-01-30T03:07:02;91005.91;;;-0.72;62.28
46782;BME280;32541;46.298;11.506;2024-01-30T03:09:28;91004.88;;;-0.54;61.39
46782;BME280;32541;46.298;11.506;2024-01-30T03:11:54;91005.47;;;-0.65;62.16
46782;BME280;32541;46.298;11.506;2024-01-30T03:14:19;91005.22;;;-0.67;62.09
46782;BME280;32541;46.298;11.506;2024-01-30T03:16:44;91003.59;;;-0.79;62.70
46782;BME280;32541;46.298;11.506;2024-01-30T03:19:10;91004.75;;;-0.86;62.82
46782;BME280;32541;46.298;11.506;2024-01-30T03:21:35;90996.59;;;-0.91;63.26
46782;BME280;32541;46.298;11.506;2024-01-30T03:24:01;90996.59;;;-0.91;63.30
46782;BME280;32541;46.298;11.506;2024-01-30T03:26:26;90998.97;;;-0.99;63.30
46782;BME280;32541;46.298;11.506;2024-01-30T03:28:51;90993.50;;;-1.04;64.02
46782;BME280;32541;46.298;11.506;2024-01-30T03:31:17;90999.84;;;-1.07;64.30
46782;BME280;32541;46.298;11.506;2024-01-30T03:33:43;90985.78;;;-1.12;64.51
46782;BME280;32541;46.298;11.506;2024-01-30T03:36:11;90980.75;;;-1.04;64.42
46782;BME280;32541;46.298;11.506;2024-01-30T03:38:37;90988.50;;;-0.91;64.25
46782;BME280;32541;46.298;11.506;2024-01-30T03:41:02;90985.47;;;-0.99;63.76
46782;BME280;32541;46.298;11.506;2024-01-30T03:43:29;90985.53;;;-0.93;63.32
46782;BME280;32541;46.298;11.506;2024-01-30T03:45:55;90983.78;;;-0.96;64.16
46782;BME280;32541;46.298;11.506;2024-01-30T03:48:21;90989.72;;;-0.92;63.75
46782;BME280;32541;46.298;11.506;2024-01-30T03:50:46;90980.59;;;-0.95;64.51
46782;BME280;32541;46.298;11.506;2024-01-30T03:53:12;90985.94;;;-1.00;64.56
46782;BME280;32541;46.298;11.506;2024-01-30T03:55:37;90982.03;;;-0.99;63.99
46782;BME280;32541;46.298;11.506;2024-01-30T03:58:02;90978.91;;;-0.72;62.82
46782;BME280;32541;46.298;11.506;2024-01-30T04:00:28;90973.44;;;-0.78;62.43
46782;BME280;32541;46.298;11.506;2024-01-30T04:02:53;90976.94;;;-0.92;62.95
46782;BME280;32541;46.298;11.506;2024-01-30T04:05:18;90978.56;;;-1.00;63.32
46782;BME280;32541;46.298;11.506;2024-01-30T04:07:44;90974.88;;;-1.02;63.54
46782;BME280;32541;46.298;11.506;2024-01-30T04:10:09;90968.41;;;-1.10;63.46
46782;BME280;32541;46.298;11.506;2024-01-30T04:12:35;90968.19;;;-1.07;63.46
46782;BME280;32541;46.298;11.506;2024-01-30T04:15:01;90975.00;;;-0.91;62.08
46782;BME280;32541;46.298;11.506;2024-01-30T04:17:26;90977.19;;;-0.95;62.10
46782;BME280;32541;46.298;11.506;2024-01-30T04:19:54;90978.38;;;-0.96;63.15
46782;BME280;32541;46.298;11.506;2024-01-30T04:22:19;90976.38;;;-1.01;62.66
46782;BME280;32541;46.298;11.506;2024-01-30T04:24:45;90968.66;;;-1.08;63.18
46782;BME280;32541;46.298;11.506;2024-01-30T04:27:10;90971.91;;;-1.04;63.56
46782;BME280;32541;46.298;11.506;2024-01-30T04:29:35;90965.97;;;-1.08;63.80
46782;BME280;32541;46.298;11.506;2024-01-30T04:32:01;90968.41;;;-1.10;64.15
46782;BME280;32541;46.298;11.506;2024-01-30T04:34:26;90968.03;;;-1.18;64.33
46782;BME280;32541;46.298;11.506;2024-01-30T04:36:51;90961.25;;;-1.14;65.04
46782;BME280;32541;46.298;11.506;2024-01-30T04:39:17;90967.09;;;-1.15;64.66
46782;BME280;32541;46.298;11.506;2024-01-30T04:41:42;90965.34;;;-1.18;64.78
46782;BME280;32541;46.298;11.506;2024-01-30T04:44:07;90968.09;;;-1.13;64.80
46782;BME280;32541;46.298;11.506;2024-01-30T04:46:33;90973.94;;;-0.99;63.32
46782;BME280;32541;46.298;11.506;2024-01-30T04:49:01;90966.50;;;-1.04;63.55
46782;BME280;32541;46.298;11.506;2024-01-30T04:51:26;90972.16;;;-1.02;64.17
46782;BME280;32541;46.298;11.506;2024-01-30T04:53:52;90968.91;;;-1.06;64.02
46782;BME280;32541;46.298;11.506;2024-01-30T04:56:17;90969.34;;;-1.14;63.79
46782;BME280;32541;46.298;11.506;2024-01-30T04:58:43;90968.03;;;-1.18;64.25
46782;BME280;32541;46.298;11.506;2024-01-30T05:01:08;90971.63;;;-1.27;64.44
46782;BME280;32541;46.298;11.506;2024-01-30T05:03:34;90973.31;;;-1.29;64.79
46782;BME280;32541;46.298;11.506;2024-01-30T05:06:00;90969.66;;;-1.26;64.54
46782;BME280;32541;46.298;11.506;2024-01-30T05:08:25;90963.06;;;-1.25;64.32
46782;BME280;32541;46.298;11.506;2024-01-30T05:10:50;90966.03;;;-1.23;64.09
46782;BME280;32541;46.298;11.506;2024-01-30T05:13:16;90971.50;;;-1.18;64.61
46782;BME280;32541;46.298;11.506;2024-01-30T05:15:41;90976.50;;;-1.10;63.53
46782;BME280;32541;46.298;11.506;2024-01-30T05:18:06;90979.31;;;-1.20;64.02
46782;BME280;32541;46.298;11.506;2024-01-30T05:20:32;90977.50;;;-1.08;63.83
46782;BME280;32541;46.298;11.506;2024-01-30T05:22:57;90984.16;;;-1.24;65.21
46782;BME280;32541;46.298;11.506;2024-01-30T05:25:22;90979.44;;;-1.29;65.26
46782;BME280;32541;46.298;11.506;2024-01-30T05:27:48;90975.06;;;-1.26;64.77
46782;BME280;32541;46.298;11.506;2024-01-30T05:30:15;90982.03;;;-1.20;64.14
46782;BME280;32541;46.298;11.506;2024-01-30T05:32:40;90979.03;;;-1.22;63.87
46782;BME280;32541;46.298;11.506;2024-01-30T05:35:06;90979.03;;;-1.22;63.90
46782;BME280;32541;46.298;11.506;2024-01-30T05:37:33;90972.97;;;-1.17;64.54
46782;BME280;32541;46.298;11.506;2024-01-30T05:39:58;90969.28;;;-1.19;64.34
46782;BME280;32541;46.298;11.506;2024-01-30T05:42:24;90974.44;;;-1.16;66.33
46782;BME280;32541;46.298;11.506;2024-01-30T05:44:50;90980.88;;;-1.13;66.48
46782;BME280;32541;46.298;11.506;2024-01-30T05:47:15;90979.13;;;-1.16;65.13
46782;BME280;32541;46.298;11.506;2024-01-30T05:49:41;90976.56;;;-1.25;65.23
46782;BME280;32541;46.298;11.506;2024-01-30T05:52:06;90983.63;;;-1.28;64.83
46782;BME280;32541;46.298;11.506;2024-01-30T05:54:32;90982.81;;;-1.34;64.93
46782;BME280;32541;46.298;11.506;2024-01-30T05:56:57;90979.38;;;-1.34;64.88
46782;BME280;32541;46.298;11.506;2024-01-30T05:59:22;90979.84;;;-1.36;64.58
46782;BME280;32541;46.298;11.506;2024-01-30T06:01:48;90980.31;;;-1.37;65.50
46782;BME280;32541;46.298;11.506;2024-01-30T06:04:14;90979.38;;;-1.34;65.47
46782;BME280;32541;46.298;11.506;2024-01-30T06:06:40;90972.69;;;-1.39;64.97
46782;BME280;32541;46.298;11.506;2024-01-30T06:09:06;90974.19;;;-1.38;64.74
46782;BME280;32541;46.298;11.506;2024-01-30T06:11:31;90976.69;;;-1.34;64.71
46782;BME280;32541;46.298;11.506;2024-01-30T06:13:57;90979.94;;;-1.10;63.92
46782;BME280;32541;46.298;11.506;2024-01-30T06:16:22;90976.63;;;-1.20;64.07
46782;BME280;32541;46.298;11.506;2024-01-30T06:18:48;90967.16;;;-1.30;63.95
46782;BME280;32541;46.298;11.506;2024-01-30T06:21:13;90970.53;;;-1.35;64.33
46782;BME280;32541;46.298;11.506;2024-01-30T06:23:39;90967.78;;;-1.40;64.69
46782;BME280;32541;46.298;11.506;2024-01-30T06:26:06;90974.63;;;-1.39;64.81
46782;BME280;32541;46.298;11.506;2024-01-30T06:28:31;90981.25;;;-1.40;64.84
46782;BME280;32541;46.298;11.506;2024-01-30T06:30:57;90972.97;;;-1.37;67.75
46782;BME280;32541;46.298;11.506;2024-01-30T06:33:22;90982.91;;;-1.28;66.70
46782;BME280;32541;46.298;11.506;2024-01-30T06:35:48;90986.13;;;-1.24;68.94
46782;BME280;32541;46.298;11.506;2024-01-30T06:38:13;90988.38;;;-1.23;65.96
46782;BME280;32541;46.298;11.506;2024-01-30T06:40:41;90988.81;;;-1.24;66.32
46782;BME280;32541;46.298;11.506;2024-01-30T06:43:06;90982.78;;;-1.19;64.35
46782;BME280;32541;46.298;11.506;2024-01-30T06:45:33;90993.19;;;-1.27;64.54
46782;BME280;32541;46.298;11.506;2024-01-30T06:48:00;90991.44;;;-1.30;64.65
46782;BME280;32541;46.298;11.506;2024-01-30T06:50:25;90989.50;;;-1.29;64.83
46782;BME280;32541;46.298;11.506;2024-01-30T06:52:51;90990.63;;;-1.36;65.63
46782;BME280;32541;46.298;11.506;2024-01-30T06:55:16;90997.31;;;-1.31;69.32
46782;BME280;32541;46.298;11.506;2024-01-30T06:57:41;90997.84;;;-1.27;67.00
46782;BME280;32541;46.298;11.506;2024-01-30T07:00:07;91000.28;;;-1.29;66.28
46782;BME280;32541;46.298;11.506;2024-01-30T07:02:33;91001.97;;;-1.32;66.04
46782;BME280;32541;46.298;11.506;2024-01-30T07:04:58;90999.53;;;-1.30;64.93
46782;BME280;32541;46.298;11.506;2024-01-30T07:07:24;90996.09;;;-1.30;64.47
46782;BME280;32541;46.298;11.506;2024-01-30T07:09:49;90999.53;;;-1.30;64.34
46782;BME280;32541;46.298;11.506;2024-01-30T07:12:17;91001.38;;;-1.21;64.54
46782;BME280;32541;46.298;11.506;2024-01-30T07:14:43;90998.16;;;-1.25;65.06
46782;BME280;32541;46.298;11.506;2024-01-30T07:17:08;91006.44;;;-1.29;66.09
46782;BME280;32541;46.298;11.506;2024-01-30T07:19:34;91005.69;;;-1.29;65.41
46782;BME280;32541;46.298;11.506;2024-01-30T07:22:00;91010.81;;;-1.31;65.34
46782;BME280;32541;46.298;11.506;2024-01-30T07:24:26;91014.41;;;-1.20;64.76
46782;BME280;32541;46.298;11.506;2024-01-30T07:26:52;91012.09;;;-1.06;65.40
46782;BME280;32541;46.298;11.506;2024-01-30T07:29:17;91018.38;;;-0.95;67.16
46782;BME280;32541;46.298;11.506;2024-01-30T07:31:43;91017.94;;;-0.93;64.07
46782;BME280;32541;46.298;11.506;2024-01-30T07:34:08;91020.06;;;-0.97;64.44
46782;BME280;32541;46.298;11.506;2024-01-30T07:36:34;91013.22;;;-0.98;64.66
46782;BME280;32541;46.298;11.506;2024-01-30T07:38:59;91021.75;;;-1.00;64.30
46782;BME280;32541;46.298;11.506;2024-01-30T07:41:25;91017.06;;;-0.85;64.62
46782;BME280;32541;46.298;11.506;2024-01-30T07:43:50;91023.50;;;-0.11;62.69
46782;BME280;32541;46.298;11.506;2024-01-30T07:46:16;91021.69;;;0.69;59.91
46782;BME280;32541;46.298;11.506;2024-01-30T07:48:41;91015.69;;;2.37;54.95
46782;BME280;32541;46.298;11.506;2024-01-30T07:51:06;91012.91;;;4.65;50.31
46782;BME280;32541;46.298;11.506;2024-01-30T07:53:32;91011.97;;;6.63;44.02
46782;BME280;32541;46.298;11.506;2024-01-30T07:55:57;91006.72;;;8.34;40.58
46782;BME280;32541;46.298;11.506;2024-01-30T07:58:23;91008.22;;;9.80;38.87
46782;BME280;32541;46.298;11.506;2024-01-30T08:00:49;91004.25;;;11.49;36.85
46782;BME280;32541;46.298;11.506;2024-01-30T08:03:14;90999.50;;;12.65;34.95
46782;BME280;32541;46.298;11.506;2024-01-30T08:05:41;90998.78;;;13.61;34.00
46782;BME280;32541;46.298;11.506;2024-01-30T08:08:07;90997.53;;;14.73;31.50
46782;BME280;32541;46.298;11.506;2024-01-30T08:10:32;90998.88;;;15.16;30.13
46782;BME280;32541;46.298;11.506;2024-01-30T08:12:58;91008.41;;;15.76;29.48
46782;BME280;32541;46.298;11.506;2024-01-30T08:15:23;91001.50;;;16.13;29.00
46782;BME280;32541;46.298;11.506;2024-01-30T08:17:49;91002.22;;;16.79;28.30
46782;BME280;32541;46.298;11.506;2024-01-30T08:20:14;91007.03;;;17.07;27.58
46782;BME280;32541;46.298;11.506;2024-01-30T08:22:40;90989.84;;;17.58;26.97
46782;BME280;32541;46.298;11.506;2024-01-30T08:25:06;90997.59;;;17.60;26.67
46782;BME280;32541;46.298;11.506;2024-01-30T08:27:32;91001.00;;;17.20;26.57
46782;BME280;32541;46.298;11.506;2024-01-30T08:29:58;91000.59;;;16.95;26.50
46782;BME280;32541;46.298;11.506;2024-01-30T08:32:26;91004.53;;;15.98;27.23
46782;BME280;32541;46.298;11.506;2024-01-30T08:34:51;91002.66;;;15.37;27.88
46782;BME280;32541;46.298;11.506;2024-01-30T08:37:17;90998.66;;;15.04;28.71
46782;BME280;32541;46.298;11.506;2024-01-30T08:39:43;90999.34;;;14.78;29.29
46782;BME280;32541;46.298;11.506;2024-01-30T08:42:09;90991.19;;;14.80;29.51
46782;BME280;32541;46.298;11.506;2024-01-30T08:44:35;91003.41;;;14.60;29.89
46782;BME280;32541;46.298;11.506;2024-01-30T08:47:00;90998.97;;;14.22;30.46
46782;BME280;32541;46.298;11.506;2024-01-30T08:49:26;90999.56;;;14.21;30.11
46782;BME280;32541;46.298;11.506;2024-01-30T08:51:51;90995.50;;;13.80;29.66
46782;BME280;32541;46.298;11.506;2024-01-30T08:54:17;90994.94;;;12.92;30.66
46782;BME280;32541;46.298;11.506;2024-01-30T08:56:42;91000.38;;;11.67;32.54
46782;BME280;32541;46.298;11.506;2024-01-30T08:59:08;91000.31;;;10.99;34.10
46782;BME280;32541;46.298;11.506;2024-01-30T09:01:33;90998.09;;;10.75;35.20
46782;BME280;32541;46.298;11.506;2024-01-30T09:03:59;91000.56;;;10.50;35.58
46782;BME280;32541;46.298;11.506;2024-01-30T09:06:24;90993.34;;;10.39;36.84
46782;BME280;32541;46.298;11.506;2024-01-30T09:08:53;90988.56;;;10.32;37.05
46782;BME280;32541;46.298;11.506;2024-01-30T09:11:18;90993.06;;;10.15;37.21
46782;BME280;32541;46.298;11.506;2024-01-30T09:13:43;90989.53;;;9.78;37.43
46782;BME280;32541;46.298;11.506;2024-01-30T09:16:09;90995.84;;;9.94;37.55
46782;BME280;32541;46.298;11.506;2024-01-30T09:18:34;90987.06;;;9.95;37.73
46782;BME280;32541;46.298;11.506;2024-01-30T09:20:59;90998.28;;;10.33;37.72
46782;BME280;32541;46.298;11.506;2024-01-30T09:23:27;90984.16;;;10.80;35.71
46782;BME280;32541;46.298;11.506;2024-01-30T09:25:52;90988.03;;;11.00;34.70
46782;BME280;32541;46.298;11.506;2024-01-30T09:28:17;90989.38;;;11.22;34.36
46782;BME280;32541;46.298;11.506;2024-01-30T09:30:43;90985.69;;;11.42;33.56
46782;BME280;32541;46.298;11.506;2024-01-30T09:33:08;90987.53;;;11.32;34.23
46782;BME280;32541;46.298;11.506;2024-01-30T09:35:34;90986.94;;;11.03;35.85
46782;BME280;32541;46.298;11.506;2024-01-30T09:38:00;90987.66;;;10.88;36.13
46782;BME280;32541;46.298;11.506;2024-01-30T09:40:25;90988.53;;;10.76;36.42
46782;BME280;32541;46.298;11.506;2024-01-30T09:42:51;90990.41;;;10.01;37.28
46782;BME280;32541;46.298;11.506;2024-01-30T09:45:21;90995.47;;;9.62;38.01
46782;BME280;32541;46.298;11.506;2024-01-30T09:47:48;90993.50;;;9.70;37.78
46782;BME280;32541;46.298;11.506;2024-01-30T09:50:14;90997.81;;;9.86;38.20
46782;BME280;32541;46.298;11.506;2024-01-30T09:52:40;90997.34;;;10.31;37.45
46782;BME280;32541;46.298;11.506;2024-01-30T09:55:07;90985.28;;;10.05;37.50
46782;BME280;32541;46.298;11.506;2024-01-30T09:57:33;90994.66;;;10.38;37.99
46782;BME280;32541;46.298;11.506;2024-01-30T09:59:59;90991.16;;;10.38;36.55
46782;BME280;32541;46.298;11.506;2024-01-30T10:02:24;90986.63;;;10.55;36.81
46782;BME280;32541;46.298;11.506;2024-01-30T10:04:51;90991.06;;;10.66;36.97
46782;BME280;32541;46.298;11.506;2024-01-30T10:07:19;90989.56;;;10.50;37.88
46782;BME280;32541;46.298;11.506;2024-01-30T10:09:46;90982.97;;;10.60;36.17
46782;BME280;32541;46.298;11.506;2024-01-30T10:12:12;90983.00;;;10.17;37.93
46782;BME280;32541;46.298;11.506;2024-01-30T10:14:41;90979.91;;;9.92;37.49
46782;BME280;32541;46.298;11.506;2024-01-30T10:17:08;90981.31;;;9.86;38.85
46782;BME280;32541;46.298;11.506;2024-01-30T10:19:34;90986.13;;;9.16;38.89
46782;BME280;32541;46.298;11.506;2024-01-30T10:22:03;90983.88;;;8.52;41.14
46782;BME280;32541;46.298;11.506;2024-01-30T10:24:29;90986.72;;;8.47;39.91
46782;BME280;32541;46.298;11.506;2024-01-30T10:26:57;90979.81;;;8.66;40.63
46782;BME280;32541;46.298;11.506;2024-01-30T10:29:30;90978.75;;;9.31;39.13
46782;BME280;32541;46.298;11.506;2024-01-30T10:32:01;90974.72;;;7.90;41.86
46782;BME280;32541;46.298;11.506;2024-01-30T10:34:27;90970.34;;;8.33;41.18
46782;BME280;32541;46.298;11.506;2024-01-30T10:37:09;90967.81;;;9.11;39.76
46782;BME280;32541;46.298;11.506;2024-01-30T10:39:41;90976.94;;;9.34;38.93
46782;BME280;32541;46.298;11.506;2024-01-30T10:42:14;90972.16;;;9.55;39.09
46782;BME280;32541;46.298;11.506;2024-01-30T10:47:30;90968.50;;;8.49;39.95
46782;BME280;32541;46.298;11.506;2024-01-30T10:49:56;90960.34;;;8.57;41.31
46782;BME280;32541;46.298;11.506;2024-01-30T10:52:25;90960.97;;;9.04;39.36
46782;BME280;32541;46.298;11.506;2024-01-30T10:54:51;90957.66;;;8.64;40.74
46782;BME280;32541;46.298;11.506;2024-01-30T10:57:18;90955.44;;;8.76;39.44
46782;BME280;32541;46.298;11.506;2024-01-30T10:59:43;90949.53;;;8.92;39.20
46782;BME280;32541;46.298;11.506;2024-01-30T11:02:10;90949.13;;;8.88;39.84
46782;BME280;32541;46.298;11.506;2024-01-30T11:04:41;90941.44;;;8.32;39.03
46782;BME280;32541;46.298;11.506;2024-01-30T11:07:17;90944.91;;;9.29;39.77
46782;BME280;32541;46.298;11.506;2024-01-30T11:09:52;90938.47;;;9.06;38.17
46782;BME280;32541;46.298;11.506;2024-01-30T11:12:25;90943.09;;;9.31;36.67
46782;BME280;32541;46.298;11.506;2024-01-30T11:15:14;90944.59;;;9.40;34.37
46782;BME280;32541;46.298;11.506;2024-01-30T11:20:15;90930.91;;;9.76;33.26
46782;BME280;32541;46.298;11.506;2024-01-30T11:22:59;90936.34;;;10.04;33.43
46782;BME280;32541;46.298;11.506;2024-01-30T11:25:27;90928.00;;;9.81;33.77
46782;BME280;32541;46.298;11.506;2024-01-30T11:27:54;90929.66;;;9.48;32.19
46782;BME280;32541;46.298;11.506;2024-01-30T11:33:36;90927.25;;;9.17;35.25
46782;BME280;32541;46.298;11.506;2024-01-30T11:36:01;90925.38;;;9.68;34.00
46782;BME280;32541;46.298;11.506;2024-01-30T11:38:28;90926.94;;;9.28;35.16
46782;BME280;32541;46.298;11.506;2024-01-30T11:40:56;90927.13;;;9.86;34.26
46782;BME280;32541;46.298;11.506;2024-01-30T11:43:22;90917.38;;;9.78;33.04
46782;BME280;32541;46.298;11.506;2024-01-30T11:45:49;90923.28;;;9.89;33.23
46782;BME280;32541;46.298;11.506;2024-01-30T11:48:14;90923.81;;;9.52;33.47
46782;BME280;32541;46.298;11.506;2024-01-30T11:50:40;90920.84;;;9.78;32.97
46782;BME280;32541;46.298;11.506;2024-01-30T11:53:06;90911.38;;;9.23;33.78
46782;BME280;32541;46.298;11.506;2024-01-30T11:55:32;90913.31;;;9.71;32.57
46782;BME280;32541;46.298;11.506;2024-01-30T11:57:58;90912.91;;;10.03;33.64
46782;BME280;32541;46.298;11.506;2024-01-30T12:00:24;90909.19;;;9.57;31.88
46782;BME280;32541;46.298;11.506;2024-01-30T12:02:54;90903.78;;;9.72;32.01
46782;BME280;32541;46.298;11.506;2024-01-30T12:05:23;90907.13;;;9.78;33.37
46782;BME280;32541;46.298;11.506;2024-01-30T12:07:48;90898.31;;;9.72;33.12
46782;BME280;32541;46.298;11.506;2024-01-30T12:10:14;90889.28;;;10.07;32.80
46782;BME280;32541;46.298;11.506;2024-01-30T12:12:42;90885.72;;;10.28;33.23
46782;BME280;32541;46.298;11.506;2024-01-30T12:15:08;90875.34;;;10.64;31.85
46782;BME280;32541;46.298;11.506;2024-01-30T12:17:35;90874.66;;;10.94;30.52
46782;BME280;32541;46.298;11.506;2024-01-30T12:20:09;90874.94;;;10.30;33.80
46782;BME280;32541;46.298;11.506;2024-01-30T12:25:11;90870.22;;;10.53;35.33
46782;BME280;32541;46.298;11.506;2024-01-30T12:27:37;90878.09;;;9.62;34.74
46782;BME280;32541;46.298;11.506;2024-01-30T12:30:10;90874.91;;;9.43;35.09
46782;BME280;32541;46.298;11.506;2024-01-30T12:32:36;90856.13;;;9.62;36.22
46782;BME280;32541;46.298;11.506;2024-01-30T12:35:02;90863.75;;;9.92;34.90
46782;BME280;32541;46.298;11.506;2024-01-30T12:37:29;90854.56;;;10.18;35.49
46782;BME280;32541;46.298;11.506;2024-01-30T12:39:56;90850.94;;;10.45;33.95
46782;BME280;32541;46.298;11.506;2024-01-30T12:42:21;90845.91;;;10.14;32.85
46782;BME280;32541;46.298;11.506;2024-01-30T12:44:48;90844.22;;;10.03;32.95
46782;BME280;32541;46.298;11.506;2024-01-30T12:47:14;90848.50;;;10.19;32.63
46782;BME280;32541;46.298;11.506;2024-01-30T12:49:44;90843.31;;;10.08;31.64
46782;BME280;32541;46.298;11.506;2024-01-30T12:52:15;90846.56;;;10.57;32.45
46782;BME280;32541;46.298;11.506;2024-01-30T12:54:40;90840.16;;;10.70;31.95
46782;BME280;32541;46.298;11.506;2024-01-30T12:57:06;90845.66;;;10.85;31.37
46782;BME280;32541;46.298;11.506;2024-01-30T12:59:31;90835.75;;;10.82;31.31